sensor_id;sensor_type;location;lat;lon;timestamp;P1;durP1;ratioP1;P2;durP2;ratioP2
21743;SDS011;11034;48.556;9.342;2023-12-28T00:01:16;10.88;;;5.80;;
21743;SDS011;11034;48.556;9.342;2023-12-28T00:03:44;9.68;;;5.22;;
21743;SDS011;11034;48.556;9.342;2023-12-28T00:06:13;9.65;;;5.13;;
21743;SDS011;11034;48.556;9.342;2023-12-28T00:08:41;19.80;;;9.27;;
21743;SDS011;11034;48.556;9.342;2023-12-28T00:11:18;19.98;;;9.70;;
21743;SDS011;11034;48.556;9.342;2023-12-28T00:13:47;2.80;;;1.67;;
21743;SDS011;11034;48.556;9.342;2023-12-28T00:16:17;5.88;;;4.05;;
21743;SDS011;11034;48.556;9.342;2023-12-28T00:18:45;3.67;;;2.15;;
21743;SDS011;11034;48.556;9.342;2023-12-28T00:21:14;2.72;;;1.98;;
21743;SDS011;11034;48.556;9.342;2023-12-28T00:23:42;3.17;;;1.70;;
21743;SDS011;11034;48.556;9.342;2023-12-28T00:26:10;3.10;;;2.13;;
21743;SDS011;11034;48.556;9.342;2023-12-28T00:28:39;3.03;;;2.10;;
21743;SDS011;11034;48.556;9.342;2023-12-28T00:31:09;3.20;;;1.80;;
21743;SDS011;11034;48.556;9.342;2023-12-28T00:33:38;8.88;;;5.28;;
21743;SDS011;11034;48.556;9.342;2023-12-28T00:36:07;11.25;;;6.28;;
21743;SDS011;11034;48.556;9.342;2023-12-28T00:38:36;9.98;;;5.57;;
21743;SDS011;11034;48.556;9.342;2023-12-28T00:41:04;13.70;;;7.00;;
21743;SDS011;11034;48.556;9.342;2023-12-28T00:43:32;9.30;;;5.10;;
21743;SDS011;11034;48.556;9.342;2023-12-28T00:46:01;11.48;;;5.78;;
21743;SDS011;11034;48.556;9.342;2023-12-28T00:48:30;7.22;;;3.72;;
21743;SDS011;11034;48.556;9.342;2023-12-28T00:51:00;6.20;;;3.58;;
21743;SDS011;11034;48.556;9.342;2023-12-28T00:53:28;7.47;;;3.90;;
21743;SDS011;11034;48.556;9.342;2023-12-28T00:55:57;4.75;;;3.15;;
21743;SDS011;11034;48.556;9.342;2023-12-28T00:58:25;7.47;;;3.35;;
21743;SDS011;11034;48.556;9.342;2023-12-28T01:00:54;16.00;;;7.63;;
21743;SDS011;11034;48.556;9.342;2023-12-28T01:03:23;8.50;;;4.20;;
21743;SDS011;11034;48.556;9.342;2023-12-28T01:05:51;7.72;;;3.78;;
21743;SDS011;11034;48.556;9.342;2023-12-28T01:08:21;4.93;;;3.10;;
21743;SDS011;11034;48.556;9.342;2023-12-28T01:10:50;6.82;;;3.50;;
21743;SDS011;11034;48.556;9.342;2023-12-28T01:13:18;8.18;;;3.65;;
21743;SDS011;11034;48.556;9.342;2023-12-28T01:15:46;8.15;;;4.45;;
21743;SDS011;11034;48.556;9.342;2023-12-28T01:18:15;5.10;;;2.85;;
21743;SDS011;11034;48.556;9.342;2023-12-28T01:20:44;5.75;;;2.80;;
21743;SDS011;11034;48.556;9.342;2023-12-28T01:23:12;3.13;;;2.10;;
21743;SDS011;11034;48.556;9.342;2023-12-28T01:25:42;6.53;;;3.55;;
21743;SDS011;11034;48.556;9.342;2023-12-28T01:28:10;6.35;;;4.03;;
21743;SDS011;11034;48.556;9.342;2023-12-28T01:30:38;10.02;;;6.32;;
21743;SDS011;11034;48.556;9.342;2023-12-28T01:33:07;8.07;;;5.60;;
21743;SDS011;11034;48.556;9.342;2023-12-28T01:35:35;7.70;;;5.82;;
21743;SDS011;11034;48.556;9.342;2023-12-28T01:38:04;3.03;;;2.67;;
21743;SDS011;11034;48.556;9.342;2023-12-28T01:40:32;3.42;;;2.30;;
21743;SDS011;11034;48.556;9.342;2023-12-28T01:43:02;3.40;;;2.35;;
21743;SDS011;11034;48.556;9.342;2023-12-28T01:45:30;3.50;;;2.03;;
21743;SDS011;11034;48.556;9.342;2023-12-28T01:47:58;3.30;;;1.50;;
21743;SDS011;11034;48.556;9.342;2023-12-28T01:50:28;2.40;;;1.58;;
21743;SDS011;11034;48.556;9.342;2023-12-28T01:52:56;2.45;;;1.20;;
21743;SDS011;11034;48.556;9.342;2023-12-28T01:55:26;1.88;;;1.27;;
21743;SDS011;11034;48.556;9.342;2023-12-28T01:57:55;2.20;;;1.33;;
21743;SDS011;11034;48.556;9.342;2023-12-28T02:00:26;1.75;;;1.30;;
21743;SDS011;11034;48.556;9.342;2023-12-28T02:02:54;2.95;;;1.50;;
21743;SDS011;11034;48.556;9.342;2023-12-28T02:05:23;2.42;;;1.30;;
21743;SDS011;11034;48.556;9.342;2023-12-28T02:07:52;2.65;;;1.60;;
21743;SDS011;11034;48.556;9.342;2023-12-28T02:10:20;2.20;;;1.38;;
21743;SDS011;11034;48.556;9.342;2023-12-28T02:12:49;1.60;;;1.40;;
21743;SDS011;11034;48.556;9.342;2023-12-28T02:15:19;2.42;;;1.55;;
21743;SDS011;11034;48.556;9.342;2023-12-28T02:17:50;2.95;;;1.52;;
21743;SDS011;11034;48.556;9.342;2023-12-28T02:20:23;3.33;;;1.30;;
21743;SDS011;11034;48.556;9.342;2023-12-28T02:22:52;4.95;;;1.60;;
21743;SDS011;11034;48.556;9.342;2023-12-28T02:25:22;1.98;;;1.40;;
21743;SDS011;11034;48.556;9.342;2023-12-28T02:27:51;2.33;;;1.58;;
21743;SDS011;11034;48.556;9.342;2023-12-28T02:30:20;2.22;;;1.40;;
21743;SDS011;11034;48.556;9.342;2023-12-28T02:32:54;2.63;;;1.20;;
21743;SDS011;11034;48.556;9.342;2023-12-28T02:35:23;1.80;;;1.40;;
21743;SDS011;11034;48.556;9.342;2023-12-28T02:37:53;3.00;;;1.42;;
21743;SDS011;11034;48.556;9.342;2023-12-28T02:40:25;1.88;;;1.38;;
21743;SDS011;11034;48.556;9.342;2023-12-28T02:42:54;2.05;;;1.60;;
21743;SDS011;11034;48.556;9.342;2023-12-28T02:45:23;3.05;;;1.52;;
21743;SDS011;11034;48.556;9.342;2023-12-28T02:47:52;2.20;;;1.40;;
21743;SDS011;11034;48.556;9.342;2023-12-28T02:50:20;2.95;;;1.48;;
21743;SDS011;11034;48.556;9.342;2023-12-28T02:52:49;2.08;;;1.70;;
21743;SDS011;11034;48.556;9.342;2023-12-28T02:55:17;3.00;;;1.63;;
21743;SDS011;11034;48.556;9.342;2023-12-28T02:57:47;2.08;;;1.38;;
21743;SDS011;11034;48.556;9.342;2023-12-28T03:00:16;2.70;;;1.65;;
21743;SDS011;11034;48.556;9.342;2023-12-28T03:02:44;2.67;;;1.60;;
21743;SDS011;11034;48.556;9.342;2023-12-28T03:05:12;7.22;;;1.50;;
21743;SDS011;11034;48.556;9.342;2023-12-28T03:07:41;2.53;;;1.70;;
21743;SDS011;11034;48.556;9.342;2023-12-28T03:10:09;1.70;;;1.23;;
21743;SDS011;11034;48.556;9.342;2023-12-28T03:12:40;2.33;;;1.30;;
21743;SDS011;11034;48.556;9.342;2023-12-28T03:15:10;1.73;;;1.23;;
21743;SDS011;11034;48.556;9.342;2023-12-28T03:17:39;2.47;;;1.60;;
21743;SDS011;11034;48.556;9.342;2023-12-28T03:20:08;2.97;;;1.42;;
21743;SDS011;11034;48.556;9.342;2023-12-28T03:22:37;2.20;;;1.50;;
21743;SDS011;11034;48.556;9.342;2023-12-28T03:25:05;2.42;;;1.60;;
21743;SDS011;11034;48.556;9.342;2023-12-28T03:27:34;2.45;;;1.40;;
21743;SDS011;11034;48.556;9.342;2023-12-28T03:30:02;1.83;;;1.30;;
21743;SDS011;11034;48.556;9.342;2023-12-28T03:32:32;2.42;;;1.58;;
21743;SDS011;11034;48.556;9.342;2023-12-28T03:35:01;1.75;;;1.23;;
21743;SDS011;11034;48.556;9.342;2023-12-28T03:37:30;3.30;;;1.42;;
21743;SDS011;11034;48.556;9.342;2023-12-28T03:39:58;2.97;;;1.17;;
21743;SDS011;11034;48.556;9.342;2023-12-28T03:42:26;2.50;;;1.63;;
21743;SDS011;11034;48.556;9.342;2023-12-28T03:44:55;2.78;;;1.45;;
21743;SDS011;11034;48.556;9.342;2023-12-28T03:47:23;1.92;;;1.30;;
21743;SDS011;11034;48.556;9.342;2023-12-28T03:49:53;3.15;;;1.30;;
21743;SDS011;11034;48.556;9.342;2023-12-28T03:52:25;4.20;;;1.40;;
21743;SDS011;11034;48.556;9.342;2023-12-28T03:54:56;4.22;;;1.50;;
21743;SDS011;11034;48.556;9.342;2023-12-28T03:57:25;1.33;;;1.13;;
21743;SDS011;11034;48.556;9.342;2023-12-28T03:59:53;2.03;;;1.58;;
21743;SDS011;11034;48.556;9.342;2023-12-28T04:02:21;3.88;;;1.55;;
21743;SDS011;11034;48.556;9.342;2023-12-28T04:04:51;2.38;;;1.40;;
21743;SDS011;11034;48.556;9.342;2023-12-28T04:07:20;2.20;;;1.40;;
21743;SDS011;11034;48.556;9.342;2023-12-28T04:09:49;2.13;;;1.38;;
21743;SDS011;11034;48.556;9.342;2023-12-28T04:12:17;1.63;;;1.30;;
21743;SDS011;11034;48.556;9.342;2023-12-28T04:14:45;2.10;;;1.40;;
21743;SDS011;11034;48.556;9.342;2023-12-28T04:17:14;2.83;;;1.55;;
21743;SDS011;11034;48.556;9.342;2023-12-28T04:19:42;1.85;;;1.35;;
21743;SDS011;11034;48.556;9.342;2023-12-28T04:22:10;2.33;;;1.40;;
21743;SDS011;11034;48.556;9.342;2023-12-28T04:24:40;1.83;;;1.40;;
21743;SDS011;11034;48.556;9.342;2023-12-28T04:27:08;2.10;;;1.30;;
21743;SDS011;11034;48.556;9.342;2023-12-28T04:29:37;1.48;;;1.15;;
21743;SDS011;11034;48.556;9.342;2023-12-28T04:32:05;1.77;;;1.40;;
21743;SDS011;11034;48.556;9.342;2023-12-28T04:34:33;1.50;;;1.27;;
21743;SDS011;11034;48.556;9.342;2023-12-28T04:37:03;1.60;;;1.30;;
21743;SDS011;11034;48.556;9.342;2023-12-28T04:39:32;2.03;;;1.10;;
21743;SDS011;11034;48.556;9.342;2023-12-28T04:42:01;2.40;;;1.30;;
21743;SDS011;11034;48.556;9.342;2023-12-28T04:44:30;1.55;;;1.15;;
21743;SDS011;11034;48.556;9.342;2023-12-28T04:46:58;1.20;;;1.10;;
21743;SDS011;11034;48.556;9.342;2023-12-28T04:49:30;2.22;;;1.33;;
21743;SDS011;11034;48.556;9.342;2023-12-28T04:51:58;1.80;;;1.23;;
21743;SDS011;11034;48.556;9.342;2023-12-28T04:54:27;1.67;;;1.10;;
21743;SDS011;11034;48.556;9.342;2023-12-28T04:56:55;2.00;;;1.10;;
21743;SDS011;11034;48.556;9.342;2023-12-28T04:59:25;2.17;;;1.20;;
21743;SDS011;11034;48.556;9.342;2023-12-28T05:01:54;1.70;;;1.10;;
21743;SDS011;11034;48.556;9.342;2023-12-28T05:04:22;1.67;;;1.20;;
21743;SDS011;11034;48.556;9.342;2023-12-28T05:06:51;2.65;;;1.40;;
21743;SDS011;11034;48.556;9.342;2023-12-28T05:09:19;2.75;;;1.00;;
21743;SDS011;11034;48.556;9.342;2023-12-28T05:11:47;2.08;;;1.10;;
21743;SDS011;11034;48.556;9.342;2023-12-28T05:14:16;2.20;;;1.25;;
21743;SDS011;11034;48.556;9.342;2023-12-28T05:16:45;1.85;;;1.30;;
21743;SDS011;11034;48.556;9.342;2023-12-28T05:19:14;2.42;;;1.20;;
21743;SDS011;11034;48.556;9.342;2023-12-28T05:21:42;1.63;;;0.98;;
21743;SDS011;11034;48.556;9.342;2023-12-28T05:24:11;1.85;;;1.10;;
21743;SDS011;11034;48.556;9.342;2023-12-28T05:26:39;1.58;;;1.10;;
21743;SDS011;11034;48.556;9.342;2023-12-28T05:29:07;2.00;;;1.17;;
21743;SDS011;11034;48.556;9.342;2023-12-28T05:31:35;3.65;;;1.17;;
21743;SDS011;11034;48.556;9.342;2023-12-28T05:34:05;1.70;;;1.33;;
21743;SDS011;11034;48.556;9.342;2023-12-28T05:36:34;1.52;;;1.00;;
21743;SDS011;11034;48.556;9.342;2023-12-28T05:39:02;1.45;;;0.93;;
21743;SDS011;11034;48.556;9.342;2023-12-28T05:41:31;2.10;;;1.05;;
21743;SDS011;11034;48.556;9.342;2023-12-28T05:43:59;3.22;;;1.10;;
21743;SDS011;11034;48.556;9.342;2023-12-28T05:46:27;1.48;;;0.93;;
21743;SDS011;11034;48.556;9.342;2023-12-28T05:48:56;1.58;;;1.00;;
21743;SDS011;11034;48.556;9.342;2023-12-28T05:51:26;1.58;;;1.10;;
21743;SDS011;11034;48.556;9.342;2023-12-28T05:53:54;1.98;;;1.08;;
21743;SDS011;11034;48.556;9.342;2023-12-28T05:56:22;1.63;;;1.10;;
21743;SDS011;11034;48.556;9.342;2023-12-28T05:58:51;2.25;;;1.00;;
21743;SDS011;11034;48.556;9.342;2023-12-28T06:01:19;2.47;;;1.15;;
21743;SDS011;11034;48.556;9.342;2023-12-28T06:03:48;2.45;;;1.02;;
21743;SDS011;11034;48.556;9.342;2023-12-28T06:06:18;1.73;;;1.10;;
21743;SDS011;11034;48.556;9.342;2023-12-28T06:08:48;1.83;;;1.02;;
21743;SDS011;11034;48.556;9.342;2023-12-28T06:11:17;1.50;;;1.00;;
21743;SDS011;11034;48.556;9.342;2023-12-28T06:13:46;1.70;;;1.08;;
21743;SDS011;11034;48.556;9.342;2023-12-28T06:16:14;1.15;;;0.90;;
21743;SDS011;11034;48.556;9.342;2023-12-28T06:18:42;1.52;;;1.10;;
21743;SDS011;11034;48.556;9.342;2023-12-28T06:21:11;1.50;;;1.15;;
21743;SDS011;11034;48.556;9.342;2023-12-28T06:23:39;1.85;;;1.30;;
21743;SDS011;11034;48.556;9.342;2023-12-28T06:26:09;4.18;;;1.80;;
21743;SDS011;11034;48.556;9.342;2023-12-28T06:28:37;2.72;;;1.48;;
21743;SDS011;11034;48.556;9.342;2023-12-28T06:31:05;1.63;;;1.10;;
21743;SDS011;11034;48.556;9.342;2023-12-28T06:33:34;3.20;;;1.45;;
21743;SDS011;11034;48.556;9.342;2023-12-28T06:36:06;1.65;;;1.15;;
21743;SDS011;11034;48.556;9.342;2023-12-28T06:38:34;2.05;;;1.20;;
21743;SDS011;11034;48.556;9.342;2023-12-28T06:41:02;1.70;;;1.10;;
21743;SDS011;11034;48.556;9.342;2023-12-28T06:43:39;2.15;;;1.10;;
21743;SDS011;11034;48.556;9.342;2023-12-28T06:46:07;2.08;;;1.40;;
21743;SDS011;11034;48.556;9.342;2023-12-28T06:48:35;2.65;;;1.25;;
21743;SDS011;11034;48.556;9.342;2023-12-28T06:51:06;2.85;;;1.35;;
21743;SDS011;11034;48.556;9.342;2023-12-28T06:53:35;2.10;;;1.20;;
21743;SDS011;11034;48.556;9.342;2023-12-28T06:56:03;3.55;;;1.38;;
21743;SDS011;11034;48.556;9.342;2023-12-28T06:58:32;3.97;;;1.40;;
21743;SDS011;11034;48.556;9.342;2023-12-28T07:01:03;1.33;;;1.02;;
21743;SDS011;11034;48.556;9.342;2023-12-28T07:03:32;3.35;;;1.45;;
21743;SDS011;11034;48.556;9.342;2023-12-28T07:06:01;4.20;;;1.33;;
21743;SDS011;11034;48.556;9.342;2023-12-28T07:08:30;1.58;;;1.00;;
21743;SDS011;11034;48.556;9.342;2023-12-28T07:11:02;3.15;;;1.02;;
21743;SDS011;11034;48.556;9.342;2023-12-28T07:13:31;4.20;;;1.55;;
21743;SDS011;11034;48.556;9.342;2023-12-28T07:15:59;2.13;;;1.63;;
21743;SDS011;11034;48.556;9.342;2023-12-28T07:18:29;3.70;;;1.10;;
21743;SDS011;11034;48.556;9.342;2023-12-28T07:20:58;3.38;;;1.00;;
21743;SDS011;11034;48.556;9.342;2023-12-28T07:23:27;2.80;;;1.20;;
21743;SDS011;11034;48.556;9.342;2023-12-28T07:25:55;2.13;;;1.30;;
21743;SDS011;11034;48.556;9.342;2023-12-28T07:28:23;2.22;;;1.33;;
21743;SDS011;11034;48.556;9.342;2023-12-28T07:30:52;1.55;;;0.95;;
21743;SDS011;11034;48.556;9.342;2023-12-28T07:33:21;3.50;;;1.70;;
21743;SDS011;11034;48.556;9.342;2023-12-28T07:35:51;2.97;;;1.63;;
21743;SDS011;11034;48.556;9.342;2023-12-28T07:38:19;1.58;;;1.00;;
21743;SDS011;11034;48.556;9.342;2023-12-28T07:40:48;2.85;;;1.27;;
21743;SDS011;11034;48.556;9.342;2023-12-28T07:43:16;2.28;;;1.17;;
21743;SDS011;11034;48.556;9.342;2023-12-28T07:45:45;2.05;;;1.23;;
21743;SDS011;11034;48.556;9.342;2023-12-28T07:48:13;3.72;;;2.20;;
21743;SDS011;11034;48.556;9.342;2023-12-28T07:50:42;2.38;;;1.10;;
21743;SDS011;11034;48.556;9.342;2023-12-28T07:53:12;4.30;;;1.77;;
21743;SDS011;11034;48.556;9.342;2023-12-28T07:55:40;3.92;;;1.77;;
21743;SDS011;11034;48.556;9.342;2023-12-28T07:58:08;4.50;;;2.33;;
21743;SDS011;11034;48.556;9.342;2023-12-28T08:00:37;4.25;;;2.75;;
21743;SDS011;11034;48.556;9.342;2023-12-28T08:03:05;2.20;;;1.40;;
21743;SDS011;11034;48.556;9.342;2023-12-28T08:05:33;3.00;;;1.67;;
21743;SDS011;11034;48.556;9.342;2023-12-28T08:08:02;3.17;;;1.17;;
21743;SDS011;11034;48.556;9.342;2023-12-28T08:10:32;5.07;;;2.90;;
21743;SDS011;11034;48.556;9.342;2023-12-28T08:13:01;3.17;;;1.65;;
21743;SDS011;11034;48.556;9.342;2023-12-28T08:15:29;4.00;;;1.38;;
21743;SDS011;11034;48.556;9.342;2023-12-28T08:17:57;2.90;;;1.55;;
21743;SDS011;11034;48.556;9.342;2023-12-28T08:20:26;2.75;;;1.58;;
21743;SDS011;11034;48.556;9.342;2023-12-28T08:22:55;3.20;;;1.92;;
21743;SDS011;11034;48.556;9.342;2023-12-28T08:25:41;2.08;;;1.27;;
21743;SDS011;11034;48.556;9.342;2023-12-28T08:28:10;11.68;;;4.80;;
21743;SDS011;11034;48.556;9.342;2023-12-28T08:30:38;2.15;;;1.30;;
21743;SDS011;11034;48.556;9.342;2023-12-28T08:33:07;2.90;;;1.48;;
21743;SDS011;11034;48.556;9.342;2023-12-28T08:35:35;3.75;;;2.00;;
21743;SDS011;11034;48.556;9.342;2023-12-28T08:38:03;3.50;;;1.67;;
21743;SDS011;11034;48.556;9.342;2023-12-28T08:40:33;2.22;;;1.30;;
21743;SDS011;11034;48.556;9.342;2023-12-28T08:43:02;2.45;;;1.35;;
21743;SDS011;11034;48.556;9.342;2023-12-28T08:45:31;20.85;;;9.07;;
21743;SDS011;11034;48.556;9.342;2023-12-28T08:48:00;4.03;;;1.90;;
21743;SDS011;11034;48.556;9.342;2023-12-28T08:50:29;10.93;;;4.93;;
21743;SDS011;11034;48.556;9.342;2023-12-28T08:52:58;14.38;;;7.30;;
21743;SDS011;11034;48.556;9.342;2023-12-28T08:55:26;3.95;;;1.50;;
21743;SDS011;11034;48.556;9.342;2023-12-28T08:57:55;3.45;;;1.95;;
21743;SDS011;11034;48.556;9.342;2023-12-28T09:00:25;2.22;;;1.38;;
21743;SDS011;11034;48.556;9.342;2023-12-28T09:02:53;4.50;;;1.77;;
21743;SDS011;11034;48.556;9.342;2023-12-28T09:05:22;10.10;;;3.75;;
21743;SDS011;11034;48.556;9.342;2023-12-28T09:07:50;12.05;;;6.00;;
21743;SDS011;11034;48.556;9.342;2023-12-28T09:10:18;17.95;;;8.85;;
21743;SDS011;11034;48.556;9.342;2023-12-28T09:12:47;6.78;;;3.72;;
21743;SDS011;11034;48.556;9.342;2023-12-28T09:15:15;7.47;;;3.63;;
21743;SDS011;11034;48.556;9.342;2023-12-28T09:17:45;2.10;;;1.40;;
21743;SDS011;11034;48.556;9.342;2023-12-28T09:20:13;3.88;;;1.65;;
21743;SDS011;11034;48.556;9.342;2023-12-28T09:22:41;4.18;;;1.70;;
21743;SDS011;11034;48.556;9.342;2023-12-28T09:25:10;7.15;;;2.83;;
21743;SDS011;11034;48.556;9.342;2023-12-28T09:27:38;4.78;;;2.10;;
21743;SDS011;11034;48.556;9.342;2023-12-28T09:30:07;4.57;;;1.95;;
21743;SDS011;11034;48.556;9.342;2023-12-28T09:32:36;2.10;;;1.20;;
21743;SDS011;11034;48.556;9.342;2023-12-28T09:35:06;4.15;;;1.65;;
21743;SDS011;11034;48.556;9.342;2023-12-28T09:37:34;3.30;;;1.60;;
21743;SDS011;11034;48.556;9.342;2023-12-28T09:40:03;2.58;;;1.80;;
21743;SDS011;11034;48.556;9.342;2023-12-28T09:42:36;2.30;;;1.63;;
21743;SDS011;11034;48.556;9.342;2023-12-28T09:45:07;1.95;;;1.40;;
21743;SDS011;11034;48.556;9.342;2023-12-28T09:47:36;3.72;;;1.65;;
21743;SDS011;11034;48.556;9.342;2023-12-28T09:50:06;2.60;;;1.60;;
21743;SDS011;11034;48.556;9.342;2023-12-28T09:52:35;3.13;;;1.80;;
21743;SDS011;11034;48.556;9.342;2023-12-28T09:55:03;4.63;;;2.10;;
21743;SDS011;11034;48.556;9.342;2023-12-28T09:57:32;4.75;;;2.55;;
21743;SDS011;11034;48.556;9.342;2023-12-28T10:00:00;3.60;;;2.08;;
21743;SDS011;11034;48.556;9.342;2023-12-28T10:02:30;6.90;;;3.05;;
21743;SDS011;11034;48.556;9.342;2023-12-28T10:05:02;4.70;;;2.88;;
21743;SDS011;11034;48.556;9.342;2023-12-28T10:07:32;6.07;;;2.97;;
21743;SDS011;11034;48.556;9.342;2023-12-28T10:10:00;8.48;;;3.38;;
21743;SDS011;11034;48.556;9.342;2023-12-28T10:12:31;3.22;;;2.10;;
21743;SDS011;11034;48.556;9.342;2023-12-28T10:15:00;3.40;;;2.00;;
21743;SDS011;11034;48.556;9.342;2023-12-28T10:17:29;3.10;;;1.73;;
21743;SDS011;11034;48.556;9.342;2023-12-28T10:19:57;3.30;;;1.80;;
21743;SDS011;11034;48.556;9.342;2023-12-28T10:22:31;4.68;;;2.03;;
21743;SDS011;11034;48.556;9.342;2023-12-28T10:25:01;3.33;;;1.75;;
21743;SDS011;11034;48.556;9.342;2023-12-28T10:27:30;3.95;;;2.08;;
21743;SDS011;11034;48.556;9.342;2023-12-28T10:29:59;3.42;;;1.90;;
21743;SDS011;11034;48.556;9.342;2023-12-28T10:32:28;2.58;;;1.70;;
21743;SDS011;11034;48.556;9.342;2023-12-28T10:34:58;2.35;;;1.70;;
21743;SDS011;11034;48.556;9.342;2023-12-28T10:37:29;3.63;;;2.05;;
21743;SDS011;11034;48.556;9.342;2023-12-28T10:40:01;2.80;;;1.67;;
21743;SDS011;11034;48.556;9.342;2023-12-28T10:42:32;3.20;;;2.05;;
21743;SDS011;11034;48.556;9.342;2023-12-28T10:45:02;4.30;;;2.08;;
21743;SDS011;11034;48.556;9.342;2023-12-28T10:47:32;3.42;;;2.00;;
21743;SDS011;11034;48.556;9.342;2023-12-28T10:50:03;2.65;;;1.50;;
21743;SDS011;11034;48.556;9.342;2023-12-28T10:52:32;2.92;;;1.50;;
21743;SDS011;11034;48.556;9.342;2023-12-28T10:55:07;1.73;;;1.52;;
21743;SDS011;11034;48.556;9.342;2023-12-28T10:57:39;4.82;;;1.50;;
21743;SDS011;11034;48.556;9.342;2023-12-28T11:00:11;2.45;;;1.48;;
21743;SDS011;11034;48.556;9.342;2023-12-28T11:02:42;3.08;;;1.40;;
21743;SDS011;11034;48.556;9.342;2023-12-28T11:05:12;2.85;;;1.35;;
21743;SDS011;11034;48.556;9.342;2023-12-28T11:07:41;3.10;;;1.52;;
21743;SDS011;11034;48.556;9.342;2023-12-28T11:10:12;2.58;;;1.30;;
21743;SDS011;11034;48.556;9.342;2023-12-28T11:12:41;2.58;;;1.42;;
21743;SDS011;11034;48.556;9.342;2023-12-28T11:15:10;2.22;;;1.40;;
21743;SDS011;11034;48.556;9.342;2023-12-28T11:17:39;2.28;;;1.50;;
21743;SDS011;11034;48.556;9.342;2023-12-28T11:20:09;4.15;;;1.63;;
21743;SDS011;11034;48.556;9.342;2023-12-28T11:22:37;3.60;;;1.23;;
21743;SDS011;11034;48.556;9.342;2023-12-28T11:25:06;1.95;;;1.35;;
21743;SDS011;11034;48.556;9.342;2023-12-28T11:27:43;2.70;;;1.52;;
21743;SDS011;11034;48.556;9.342;2023-12-28T11:30:12;2.65;;;1.50;;
21743;SDS011;11034;48.556;9.342;2023-12-28T11:32:40;2.75;;;1.65;;
21743;SDS011;11034;48.556;9.342;2023-12-28T11:35:11;3.10;;;1.70;;
21743;SDS011;11034;48.556;9.342;2023-12-28T11:37:41;3.60;;;1.40;;
21743;SDS011;11034;48.556;9.342;2023-12-28T11:40:11;2.90;;;1.48;;
21743;SDS011;11034;48.556;9.342;2023-12-28T11:42:48;4.20;;;1.45;;
21743;SDS011;11034;48.556;9.342;2023-12-28T11:45:17;2.88;;;1.45;;
21743;SDS011;11034;48.556;9.342;2023-12-28T11:47:46;2.45;;;1.40;;
21743;SDS011;11034;48.556;9.342;2023-12-28T11:50:14;1.70;;;1.48;;
21743;SDS011;11034;48.556;9.342;2023-12-28T11:52:43;1.52;;;1.20;;
21743;SDS011;11034;48.556;9.342;2023-12-28T11:55:20;1.85;;;1.30;;
21743;SDS011;11034;48.556;9.342;2023-12-28T11:57:53;3.58;;;1.50;;
21743;SDS011;11034;48.556;9.342;2023-12-28T12:00:22;2.35;;;1.30;;
21743;SDS011;11034;48.556;9.342;2023-12-28T12:02:52;3.15;;;1.27;;
21743;SDS011;11034;48.556;9.342;2023-12-28T12:05:22;2.75;;;1.70;;
21743;SDS011;11034;48.556;9.342;2023-12-28T12:07:51;3.75;;;1.40;;
21743;SDS011;11034;48.556;9.342;2023-12-28T12:10:24;1.70;;;1.35;;
21743;SDS011;11034;48.556;9.342;2023-12-28T12:12:53;2.13;;;1.50;;
21743;SDS011;11034;48.556;9.342;2023-12-28T12:15:22;2.33;;;1.48;;
21743;SDS011;11034;48.556;9.342;2023-12-28T12:17:51;2.72;;;1.55;;
21743;SDS011;11034;48.556;9.342;2023-12-28T12:20:19;2.75;;;1.50;;
21743;SDS011;11034;48.556;9.342;2023-12-28T12:22:49;2.60;;;1.80;;
21743;SDS011;11034;48.556;9.342;2023-12-28T12:25:18;4.70;;;2.00;;
21743;SDS011;11034;48.556;9.342;2023-12-28T12:27:47;5.43;;;1.85;;
21743;SDS011;11034;48.556;9.342;2023-12-28T12:30:17;2.50;;;1.70;;
21743;SDS011;11034;48.556;9.342;2023-12-28T12:32:45;2.88;;;1.63;;
21743;SDS011;11034;48.556;9.342;2023-12-28T12:35:14;2.00;;;1.50;;
21743;SDS011;11034;48.556;9.342;2023-12-28T12:37:44;2.22;;;1.55;;
21743;SDS011;11034;48.556;9.342;2023-12-28T12:40:15;5.65;;;1.75;;
21743;SDS011;11034;48.556;9.342;2023-12-28T12:42:51;2.75;;;1.75;;
21743;SDS011;11034;48.556;9.342;2023-12-28T12:45:21;2.78;;;1.50;;
21743;SDS011;11034;48.556;9.342;2023-12-28T12:47:51;2.40;;;1.70;;
21743;SDS011;11034;48.556;9.342;2023-12-28T12:50:19;3.25;;;2.42;;
21743;SDS011;11034;48.556;9.342;2023-12-28T12:52:48;3.20;;;1.83;;
21743;SDS011;11034;48.556;9.342;2023-12-28T12:55:17;4.50;;;2.08;;
21743;SDS011;11034;48.556;9.342;2023-12-28T12:57:45;3.63;;;2.10;;
21743;SDS011;11034;48.556;9.342;2023-12-28T13:00:14;3.47;;;2.00;;
21743;SDS011;11034;48.556;9.342;2023-12-28T13:02:44;3.35;;;1.83;;
21743;SDS011;11034;48.556;9.342;2023-12-28T13:05:12;2.65;;;1.70;;
21743;SDS011;11034;48.556;9.342;2023-12-28T13:07:40;2.63;;;1.83;;
21743;SDS011;11034;48.556;9.342;2023-12-28T13:10:09;4.03;;;1.73;;
21743;SDS011;11034;48.556;9.342;2023-12-28T13:12:38;3.90;;;1.98;;
21743;SDS011;11034;48.556;9.342;2023-12-28T13:15:07;3.45;;;1.92;;
21743;SDS011;11034;48.556;9.342;2023-12-28T13:17:36;2.92;;;2.00;;
21743;SDS011;11034;48.556;9.342;2023-12-28T13:20:06;4.05;;;2.08;;
21743;SDS011;11034;48.556;9.342;2023-12-28T13:22:36;6.40;;;2.28;;
21743;SDS011;11034;48.556;9.342;2023-12-28T13:25:04;5.82;;;2.15;;
21743;SDS011;11034;48.556;9.342;2023-12-28T13:27:33;5.75;;;2.40;;
21743;SDS011;11034;48.556;9.342;2023-12-28T13:30:01;5.07;;;2.22;;
21743;SDS011;11034;48.556;9.342;2023-12-28T13:32:30;5.00;;;2.63;;
21743;SDS011;11034;48.556;9.342;2023-12-28T13:34:58;5.03;;;2.88;;
21743;SDS011;11034;48.556;9.342;2023-12-28T13:37:30;5.72;;;3.10;;
21743;SDS011;11034;48.556;9.342;2023-12-28T13:39:59;5.30;;;3.17;;
21743;SDS011;11034;48.556;9.342;2023-12-28T13:42:27;5.70;;;2.92;;
21743;SDS011;11034;48.556;9.342;2023-12-28T13:44:56;6.38;;;2.90;;
21743;SDS011;11034;48.556;9.342;2023-12-28T13:47:24;4.72;;;2.42;;
21743;SDS011;11034;48.556;9.342;2023-12-28T13:49:53;4.40;;;2.45;;
21743;SDS011;11034;48.556;9.342;2023-12-28T13:52:22;4.25;;;2.33;;
21743;SDS011;11034;48.556;9.342;2023-12-28T13:54:51;3.88;;;2.40;;
21743;SDS011;11034;48.556;9.342;2023-12-28T13:57:20;3.70;;;2.15;;
21743;SDS011;11034;48.556;9.342;2023-12-28T13:59:48;4.70;;;2.20;;
21743;SDS011;11034;48.556;9.342;2023-12-28T14:02:16;3.95;;;2.30;;
21743;SDS011;11034;48.556;9.342;2023-12-28T14:04:45;6.35;;;2.60;;
21743;SDS011;11034;48.556;9.342;2023-12-28T14:07:13;8.27;;;3.55;;
21743;SDS011;11034;48.556;9.342;2023-12-28T14:09:42;7.20;;;2.67;;
21743;SDS011;11034;48.556;9.342;2023-12-28T14:12:12;19.05;;;7.00;;
21743;SDS011;11034;48.556;9.342;2023-12-28T14:14:40;5.22;;;2.45;;
21743;SDS011;11034;48.556;9.342;2023-12-28T14:17:08;4.68;;;2.58;;
21743;SDS011;11034;48.556;9.342;2023-12-28T14:19:37;5.20;;;2.63;;
21743;SDS011;11034;48.556;9.342;2023-12-28T14:22:06;4.20;;;2.47;;
21743;SDS011;11034;48.556;9.342;2023-12-28T14:24:35;19.38;;;9.65;;
21743;SDS011;11034;48.556;9.342;2023-12-28T14:27:04;5.47;;;3.05;;
21743;SDS011;11034;48.556;9.342;2023-12-28T14:29:34;6.10;;;3.30;;
21743;SDS011;11034;48.556;9.342;2023-12-28T14:32:03;8.15;;;4.93;;
21743;SDS011;11034;48.556;9.342;2023-12-28T14:34:32;5.93;;;3.90;;
21743;SDS011;11034;48.556;9.342;2023-12-28T14:37:01;8.85;;;5.43;;
21743;SDS011;11034;48.556;9.342;2023-12-28T14:39:29;6.82;;;3.90;;
21743;SDS011;11034;48.556;9.342;2023-12-28T14:41:58;5.00;;;1.90;;
21743;SDS011;11034;48.556;9.342;2023-12-28T14:44:29;7.60;;;3.97;;
21743;SDS011;11034;48.556;9.342;2023-12-28T14:46:59;3.92;;;1.90;;
21743;SDS011;11034;48.556;9.342;2023-12-28T14:49:27;4.00;;;1.95;;
21743;SDS011;11034;48.556;9.342;2023-12-28T14:51:56;3.13;;;1.58;;
21743;SDS011;11034;48.556;9.342;2023-12-28T14:54:24;2.47;;;1.90;;
21743;SDS011;11034;48.556;9.342;2023-12-28T14:56:53;5.60;;;2.00;;
21743;SDS011;11034;48.556;9.342;2023-12-28T14:59:22;9.23;;;6.28;;